createdAt,value
2023-03-06T00:03:34.181Z,2.57
2023-03-06T00:07:41.821Z,3.13
2023-03-06T00:11:48.519Z,1.40
2023-03-06T00:15:58.625Z,2.20
2023-03-06T00:20:07.164Z,1.33
2023-03-06T00:24:13.905Z,3.20
2023-03-06T00:28:20.587Z,1.83
2023-03-06T00:32:28.281Z,3.40
2023-03-06T00:36:35.111Z,2.57
2023-03-06T00:40:41.802Z,5.73
2023-03-06T00:44:48.495Z,2.70
2023-03-06T00:48:55.153Z,2.13
2023-03-06T00:53:01.825Z,7.13
2023-03-06T00:57:08.934Z,2.47
2023-03-06T01:01:15.717Z,2.83
2023-03-06T01:05:22.589Z,2.67
2023-03-06T01:09:29.297Z,2.70
2023-03-06T01:13:35.952Z,3.17
2023-03-06T01:17:42.776Z,4.73
2023-03-06T01:21:49.496Z,6.93
2023-03-06T01:25:56.437Z,4.13
2023-03-06T01:30:04.979Z,5.67
2023-03-06T01:34:11.709Z,3.07
2023-03-06T01:38:18.405Z,5.80
2023-03-06T01:42:25.699Z,3.73
2023-03-06T01:46:41.994Z,1.73
2023-03-06T01:50:50.217Z,3.13
2023-03-06T01:55:08.569Z,2.97
2023-03-06T01:59:16.096Z,3.03
2023-03-06T02:03:25.068Z,4.43
2023-03-06T02:07:32.776Z,2.97
2023-03-06T02:11:43.825Z,2.67
2023-03-06T02:15:50.599Z,2.83
2023-03-06T02:20:28.871Z,2.60
2023-03-06T02:24:48.307Z,3.93
2023-03-06T02:28:57.300Z,5.03
2023-03-06T02:33:05.155Z,2.50
2023-03-06T02:37:11.831Z,4.30
2023-03-06T02:41:18.654Z,2.03
2023-03-06T02:45:36.163Z,3.30
2023-03-06T02:49:42.863Z,5.83
2023-03-06T02:53:49.796Z,2.17
2023-03-06T02:57:56.484Z,3.87
2023-03-06T03:02:03.242Z,3.50
2023-03-06T03:06:10.070Z,2.63
2023-03-06T03:10:16.990Z,4.73
2023-03-06T03:14:24.639Z,12.10
2023-03-06T03:18:31.533Z,8.07
2023-03-06T03:22:38.479Z,4.90
2023-03-06T03:26:45.145Z,6.70
2023-03-06T03:30:51.919Z,6.97
2023-03-06T03:34:58.645Z,7.93
2023-03-06T03:39:05.812Z,9.17
2023-03-06T03:43:12.482Z,4.47
2023-03-06T03:47:19.167Z,4.10
2023-03-06T03:51:26.100Z,4.37
2023-03-06T03:55:32.799Z,9.83
2023-03-06T03:59:39.470Z,5.13
2023-03-06T04:03:46.289Z,5.47
2023-03-06T04:07:52.980Z,5.60
2023-03-06T04:11:59.669Z,8.83
2023-03-06T04:16:06.961Z,5.93
2023-03-06T04:20:14.540Z,6.20
2023-03-06T04:24:21.199Z,8.70
2023-03-06T04:28:27.962Z,10.00
2023-03-06T04:32:34.656Z,10.07
2023-03-06T04:36:45.242Z,6.03
2023-03-06T04:40:51.908Z,6.53
2023-03-06T04:44:58.852Z,8.23
2023-03-06T04:49:05.583Z,4.90
2023-03-06T04:53:14.472Z,10.77
2023-03-06T04:57:22.070Z,6.73
2023-03-06T05:01:31.517Z,7.17
2023-03-06T05:05:38.196Z,11.03
2023-03-06T05:09:44.856Z,10.37
2023-03-06T05:13:51.651Z,9.00
2023-03-06T05:17:58.373Z,8.73
2023-03-06T05:22:05.395Z,7.37
2023-03-06T05:26:13.986Z,8.93
2023-03-06T05:30:23.046Z,7.10
2023-03-06T05:34:29.794Z,6.37
2023-03-06T05:38:36.548Z,9.80
2023-03-06T05:42:43.359Z,15.20
2023-03-06T05:46:50.768Z,9.10
2023-03-06T05:50:58.344Z,7.70
2023-03-06T05:55:05.456Z,10.03
2023-03-06T05:59:12.136Z,11.47
2023-03-06T06:03:19.722Z,7.87
2023-03-06T06:07:26.387Z,8.87
2023-03-06T06:11:33.040Z,8.90
2023-03-06T06:15:39.742Z,7.30
2023-03-06T06:19:46.442Z,10.87
2023-03-06T06:23:53.119Z,9.60
2023-03-06T06:27:59.803Z,9.00
2023-03-06T06:32:06.752Z,11.43
2023-03-06T06:36:19.559Z,9.70
2023-03-06T06:40:27.598Z,17.37
2023-03-06T06:44:34.323Z,8.00
2023-03-06T06:48:41.137Z,7.07
2023-03-06T06:52:47.898Z,9.67
2023-03-06T06:56:54.615Z,8.77
2023-03-06T07:01:09.010Z,10.90
2023-03-06T07:05:16.086Z,6.37
2023-03-06T07:09:23.139Z,4.83
2023-03-06T07:13:29.843Z,7.87
2023-03-06T07:17:36.537Z,6.30
2023-03-06T07:21:43.230Z,6.63
2023-03-06T07:25:50.271Z,6.00
2023-03-06T07:29:57.001Z,3.00
2023-03-06T07:34:05.038Z,5.27
2023-03-06T07:38:12.305Z,3.97
2023-03-06T07:42:18.982Z,4.00
2023-03-06T07:46:25.738Z,3.07
2023-03-06T07:50:33.143Z,2.07
2023-03-06T07:54:39.819Z,2.83
2023-03-06T07:58:47.768Z,1.90
2023-03-06T08:02:54.569Z,3.07
2023-03-06T08:07:01.311Z,4.30
2023-03-06T08:11:09.873Z,2.40
2023-03-06T08:15:16.648Z,1.80
2023-03-06T08:19:23.512Z,4.63
2023-03-06T08:23:30.665Z,2.00
2023-03-06T08:27:37.370Z,1.53
2023-03-06T08:31:46.064Z,0.47
2023-03-06T08:35:52.987Z,0.80
2023-03-06T08:39:59.725Z,0.80
2023-03-06T08:44:06.856Z,1.60
2023-03-06T08:48:13.551Z,0.50
2023-03-06T08:52:20.274Z,1.03
2023-03-06T08:56:29.463Z,0.40
2023-03-06T09:00:38.488Z,1.13
2023-03-06T09:04:45.177Z,0.93
2023-03-06T09:08:52.859Z,0.30
2023-03-06T09:12:59.775Z,2.30
2023-03-06T09:17:06.458Z,0.73
2023-03-06T09:21:13.187Z,0.40
2023-03-06T09:25:22.462Z,0.30
2023-03-06T09:29:29.190Z,1.33
2023-03-06T09:33:36.052Z,1.23
2023-03-06T09:37:42.750Z,2.63
2023-03-06T09:41:50.364Z,0.93
2023-03-06T09:45:58.627Z,0.30
2023-03-06T09:50:20.155Z,2.50
2023-03-06T09:55:05.435Z,0.32
2023-03-06T09:59:17.294Z,0.65
2023-03-06T10:04:01.439Z,3.03
2023-03-06T10:08:23.676Z,3.03
2023-03-06T10:12:39.994Z,0.55
2023-03-06T10:16:46.906Z,0.15
2023-03-06T10:21:18.791Z,2.53
2023-03-06T10:25:35.467Z,1.75
2023-03-06T10:30:03.560Z,0.77
2023-03-06T10:34:24.268Z,0.50
2023-03-06T10:38:30.911Z,0.30
2023-03-06T10:42:37.583Z,1.48
2023-03-06T10:46:46.947Z,0.17
2023-03-06T10:51:17.795Z,1.55
2023-03-06T10:55:27.418Z,2.20
2023-03-06T10:59:34.094Z,0.10
2023-03-06T11:03:41.056Z,0.20
2023-03-06T11:07:59.554Z,1.80
2023-03-06T11:12:23.319Z,0.10
2023-03-06T11:16:30.711Z,2.30
2023-03-06T11:20:52.053Z,0.47
2023-03-06T11:24:59.666Z,0.35
2023-03-06T11:29:12.370Z,1.92
2023-03-06T11:33:46.411Z,0.30
2023-03-06T11:37:58.408Z,0.30
2023-03-06T11:42:29.257Z,1.10
2023-03-06T11:46:47.118Z,2.50
2023-03-06T11:51:02.176Z,2.42
2023-03-06T11:55:16.272Z,1.65
2023-03-06T11:59:34.931Z,0.20
2023-03-06T12:04:12.460Z,0.30
2023-03-06T12:08:46.347Z,1.02
2023-03-06T12:13:34.680Z,1.98
2023-03-06T12:18:09.159Z,0.30
2023-03-06T12:22:57.495Z,0.50
2023-03-06T12:27:22.997Z,0.10
2023-03-06T12:31:36.497Z,0.43
2023-03-06T12:36:04.550Z,0.68
2023-03-06T12:40:17.074Z,0.30
2023-03-06T12:45:05.196Z,0.82
2023-03-06T12:49:31.968Z,0.10
2023-03-06T12:53:40.965Z,0.10
2023-03-06T12:57:49.706Z,0.13
2023-03-06T13:02:10.886Z,0.20
2023-03-06T13:06:39.148Z,0.00
2023-03-06T13:11:13.489Z,0.30
2023-03-06T13:15:37.514Z,2.92
2023-03-06T13:19:44.223Z,1.67
2023-03-06T13:23:52.292Z,0.45
2023-03-06T13:28:01.110Z,0.00
2023-03-06T13:32:18.559Z,0.82
2023-03-06T13:36:29.672Z,0.28
2023-03-06T13:40:36.380Z,1.10
2023-03-06T13:44:44.779Z,0.60
2023-03-06T13:49:10.545Z,0.82
2023-03-06T13:53:48.387Z,0.70
2023-03-06T13:58:13.967Z,1.20
2023-03-06T14:02:48.872Z,4.03
2023-03-06T14:07:07.887Z,4.80
2023-03-06T14:11:21.349Z,2.70
2023-03-06T14:15:53.102Z,1.73
2023-03-06T14:20:20.711Z,1.73
2023-03-06T14:24:37.554Z,2.72
2023-03-06T14:28:52.063Z,1.60
2023-03-06T14:32:59.267Z,0.70
2023-03-06T14:37:17.935Z,1.55
2023-03-06T14:41:33.361Z,0.52
2023-03-06T14:45:51.294Z,0.80
2023-03-06T14:50:24.503Z,2.33
2023-03-06T14:54:34.325Z,0.77
2023-03-06T14:58:46.247Z,1.90
2023-03-06T15:02:55.286Z,1.25
2023-03-06T15:07:05.913Z,0.88
2023-03-06T15:11:12.800Z,3.85
2023-03-06T15:15:27.094Z,4.53
2023-03-06T15:19:40.588Z,3.95
2023-03-06T15:23:52.555Z,4.07
2023-03-06T15:28:03.950Z,2.85
2023-03-06T15:32:36.817Z,1.67
2023-03-06T15:36:49.057Z,3.40
2023-03-06T15:41:01.191Z,1.80
2023-03-06T15:45:20.092Z,8.20
2023-03-06T15:49:26.828Z,3.42
2023-03-06T15:53:33.482Z,2.95
2023-03-06T15:57:52.945Z,4.05
2023-03-06T16:02:11.650Z,8.00
2023-03-06T16:06:20.621Z,1.95
2023-03-06T16:10:29.762Z,2.60
2023-03-06T16:14:36.468Z,4.93
2023-03-06T16:18:43.165Z,5.13
2023-03-06T16:22:50.230Z,3.67
2023-03-06T16:27:00.548Z,6.28
2023-03-06T16:31:07.285Z,7.05
2023-03-06T16:35:14.872Z,5.68
2023-03-06T16:39:23.561Z,5.47
2023-03-06T16:43:30.243Z,6.65
2023-03-06T16:47:37.413Z,4.30
2023-03-06T16:51:44.392Z,6.90
2023-03-06T16:55:51.084Z,5.88
2023-03-06T16:59:57.778Z,7.40
2023-03-06T17:04:04.593Z,8.63
2023-03-06T17:08:11.294Z,9.18
2023-03-06T17:12:18.074Z,9.90
2023-03-06T17:16:24.839Z,10.35
2023-03-06T17:20:31.550Z,10.43
2023-03-06T17:24:38.269Z,9.27
2023-03-06T17:28:46.352Z,16.37
2023-03-06T17:32:53.651Z,10.40
2023-03-06T17:37:01.425Z,10.27
2023-03-06T17:41:10.365Z,13.80
2023-03-06T17:45:17.234Z,13.57
2023-03-06T17:49:25.180Z,13.50
2023-03-06T17:53:32.143Z,14.87
2023-03-06T17:57:39.160Z,13.80
2023-03-06T18:01:46.104Z,17.03
2023-03-06T18:06:03.359Z,15.30
2023-03-06T18:10:10.451Z,18.30
2023-03-06T18:14:17.127Z,19.87
2023-03-06T18:18:24.453Z,23.90
2023-03-06T18:22:31.296Z,20.70
2023-03-06T18:26:38.193Z,27.43
2023-03-06T18:30:44.948Z,22.10
2023-03-06T18:34:51.701Z,23.50
2023-03-06T18:38:59.379Z,25.20
2023-03-06T18:43:06.097Z,27.70
2023-03-06T18:47:12.773Z,29.40
2023-03-06T18:51:20.139Z,30.57
2023-03-06T18:55:26.969Z,33.73
2023-03-06T18:59:33.694Z,30.63
2023-03-06T19:03:40.653Z,34.07
2023-03-06T19:07:47.340Z,31.13
2023-03-06T19:11:54.948Z,36.53
2023-03-06T19:16:02.166Z,31.80
2023-03-06T19:20:09.667Z,31.27
2023-03-06T19:24:16.362Z,35.57
2023-03-06T19:28:23.076Z,32.17
2023-03-06T19:32:29.813Z,32.17
2023-03-06T19:36:38.742Z,38.97
2023-03-06T19:40:50.001Z,32.27
2023-03-06T19:44:56.703Z,38.73
2023-03-06T19:49:09.594Z,36.87
2023-03-06T19:53:16.827Z,33.47
2023-03-06T19:57:23.513Z,33.17
2023-03-06T20:01:30.384Z,32.63
2023-03-06T20:05:37.131Z,35.40
2023-03-06T20:09:43.855Z,32.53
2023-03-06T20:13:51.262Z,35.40
2023-03-06T20:17:58.002Z,28.27
2023-03-06T20:22:04.785Z,28.80
2023-03-06T20:26:13.298Z,31.10
2023-03-06T20:30:20.030Z,26.77
2023-03-06T20:34:26.931Z,30.57
2023-03-06T20:38:33.931Z,29.50
2023-03-06T20:42:40.615Z,28.13
2023-03-06T20:46:47.573Z,27.50
2023-03-06T20:51:24.879Z,26.97
2023-03-06T20:55:31.531Z,25.70
2023-03-06T20:59:38.379Z,33.47
2023-03-06T21:03:45.076Z,32.07
2023-03-06T21:07:52.680Z,25.80
2023-03-06T21:11:59.835Z,35.07
2023-03-06T21:16:09.939Z,29.07
2023-03-06T21:20:16.812Z,30.07
2023-03-06T21:24:23.515Z,28.80
2023-03-06T21:28:30.930Z,25.93
2023-03-06T21:32:37.684Z,30.27
2023-03-06T21:36:44.560Z,33.07
2023-03-06T21:40:51.470Z,26.97
2023-03-06T21:44:59.793Z,28.07
2023-03-06T21:49:06.625Z,28.73
2023-03-06T21:53:13.302Z,32.83
2023-03-06T21:57:19.991Z,24.73
2023-03-06T22:01:28.861Z,24.80
2023-03-06T22:05:35.641Z,21.87
2023-03-06T22:09:42.362Z,24.93
2023-03-06T22:13:49.503Z,25.30
2023-03-06T22:17:56.245Z,23.60
2023-03-06T22:22:03.764Z,27.10
2023-03-06T22:26:14.301Z,27.83
2023-03-06T22:30:21.080Z,27.47
2023-03-06T22:34:27.752Z,26.57
2023-03-06T22:38:37.633Z,23.23
2023-03-06T22:42:44.324Z,20.27
2023-03-06T22:46:51.775Z,21.20
2023-03-06T22:51:06.320Z,20.93
2023-03-06T22:55:12.972Z,15.83
2023-03-06T22:59:19.625Z,16.63
2023-03-06T23:03:26.293Z,13.83
2023-03-06T23:07:32.960Z,11.03
2023-03-06T23:11:39.627Z,10.63
2023-03-06T23:15:46.316Z,10.70
2023-03-06T23:19:53.221Z,9.90
2023-03-06T23:24:00.163Z,10.37
2023-03-06T23:28:07.622Z,7.63
2023-03-06T23:32:14.303Z,6.03
2023-03-06T23:36:21.101Z,7.60
2023-03-06T23:40:28.297Z,7.50
2023-03-06T23:44:35.705Z,7.90
2023-03-06T23:48:43.339Z,7.50
2023-03-06T23:52:53.765Z,7.53
2023-03-06T23:57:00.432Z,5.97
